createdAt,value
2023-05-09T00:02:09.918Z,37.42
2023-05-09T00:04:39.927Z,43.22
2023-05-09T00:07:13.080Z,43.78
2023-05-09T00:09:42.900Z,45.70
2023-05-09T00:12:12.782Z,42.38
2023-05-09T00:14:45.603Z,39.13
2023-05-09T00:17:15.904Z,42.55
2023-05-09T00:19:47.864Z,46.38
2023-05-09T00:22:21.611Z,43.50
2023-05-09T00:24:51.725Z,41.85
2023-05-09T00:27:21.917Z,43.60
2023-05-09T00:29:51.769Z,39.50
2023-05-09T00:32:21.679Z,38.10
2023-05-09T00:34:51.521Z,39.13
2023-05-09T00:37:23.989Z,34.67
2023-05-09T00:39:53.858Z,38.17
2023-05-09T00:42:23.749Z,38.33
2023-05-09T00:44:53.629Z,37.25
2023-05-09T00:47:26.061Z,33.47
2023-05-09T00:49:56.822Z,40.35
2023-05-09T00:52:30.751Z,34.58
2023-05-09T00:55:01.250Z,34.78
2023-05-09T00:57:31.257Z,34.72
2023-05-09T01:00:01.115Z,36.85
2023-05-09T01:02:31.707Z,35.22
2023-05-09T01:05:02.053Z,34.97
2023-05-09T01:07:40.710Z,36.20
2023-05-09T01:10:17.686Z,32.13
2023-05-09T01:12:52.468Z,34.05
2023-05-09T01:15:29.774Z,36.80
2023-05-09T01:18:05.863Z,34.53
2023-05-09T01:20:41.119Z,33.08
2023-05-09T01:23:44.560Z,32.45
2023-05-09T01:26:23.494Z,31.90
2023-05-09T01:29:16.541Z,37.25
2023-05-09T01:31:48.014Z,39.05
2023-05-09T01:34:20.797Z,32.38
2023-05-09T01:36:53.721Z,31.27
2023-05-09T01:39:25.361Z,35.40
2023-05-09T01:41:56.438Z,37.15
2023-05-09T01:44:30.854Z,35.50
2023-05-09T01:49:33.821Z,38.22
2023-05-09T01:52:06.613Z,35.47
2023-05-09T01:54:37.428Z,34.63
2023-05-09T01:57:08.715Z,35.65
2023-05-09T01:59:43.467Z,37.75
2023-05-09T02:02:14.560Z,33.97
2023-05-09T02:04:45.871Z,34.20
2023-05-09T02:07:16.142Z,31.90
2023-05-09T02:09:46.126Z,34.13
2023-05-09T02:12:16.053Z,37.78
2023-05-09T02:14:48.598Z,36.03
2023-05-09T02:17:19.369Z,36.38
2023-05-09T02:19:49.203Z,33.78
2023-05-09T02:22:19.421Z,34.25
2023-05-09T02:24:49.297Z,35.97
2023-05-09T02:27:19.429Z,38.60
2023-05-09T02:29:57.735Z,34.70
2023-05-09T02:32:32.038Z,39.38
2023-05-09T02:37:34.562Z,41.95
2023-05-09T02:40:05.651Z,42.58
2023-05-09T02:42:35.497Z,41.28
2023-05-09T02:45:10.658Z,39.13
2023-05-09T02:47:40.984Z,41.92
2023-05-09T02:50:11.752Z,37.92
2023-05-09T02:52:41.612Z,37.30
2023-05-09T02:55:12.631Z,37.20
2023-05-09T02:57:42.778Z,38.22
2023-05-09T03:00:18.090Z,41.47
2023-05-09T03:02:48.838Z,36.65
2023-05-09T03:05:18.969Z,34.30
2023-05-09T03:07:49.642Z,42.22
2023-05-09T03:10:19.741Z,34.70
2023-05-09T03:12:49.629Z,37.30
2023-05-09T03:15:22.673Z,33.05
2023-05-09T03:17:52.548Z,44.15
2023-05-09T03:20:22.643Z,34.22
2023-05-09T03:22:52.714Z,37.40
2023-05-09T03:25:22.743Z,33.10
2023-05-09T03:27:52.633Z,34.85
2023-05-09T03:30:26.622Z,34.38
2023-05-09T03:32:56.489Z,33.92
2023-05-09T03:35:26.612Z,32.58
2023-05-09T03:37:56.438Z,35.35
2023-05-09T03:40:26.316Z,35.33
2023-05-09T03:42:56.230Z,37.65
2023-05-09T03:45:28.739Z,36.35
2023-05-09T03:47:59.203Z,46.45
2023-05-09T03:50:29.150Z,46.17
2023-05-09T03:52:58.992Z,45.97
2023-05-09T03:55:28.817Z,42.08
2023-05-09T03:57:58.903Z,49.15
2023-05-09T04:00:31.353Z,49.00
2023-05-09T04:03:01.478Z,38.90
2023-05-09T04:05:33.624Z,39.95
2023-05-09T04:08:03.517Z,42.53
2023-05-09T04:10:33.809Z,35.50
2023-05-09T04:13:03.927Z,37.28
2023-05-09T04:15:36.432Z,41.85
2023-05-09T04:18:06.700Z,40.13
2023-05-09T04:20:36.685Z,36.00
2023-05-09T04:23:06.633Z,35.75
2023-05-09T04:25:37.475Z,37.20
2023-05-09T04:28:08.461Z,39.28
2023-05-09T04:30:40.926Z,37.45
2023-05-09T04:33:11.473Z,44.80
2023-05-09T04:35:41.460Z,36.55
2023-05-09T04:38:11.654Z,40.10
2023-05-09T04:40:41.501Z,37.03
2023-05-09T04:43:11.589Z,43.45
2023-05-09T04:45:44.023Z,40.55
2023-05-09T04:48:13.867Z,38.50
2023-05-09T04:50:44.321Z,40.55
2023-05-09T04:53:14.127Z,36.75
2023-05-09T04:55:44.316Z,38.08
2023-05-09T04:58:14.214Z,33.75
2023-05-09T05:00:46.798Z,35.88
2023-05-09T05:03:18.087Z,32.75
2023-05-09T05:05:48.329Z,33.78
2023-05-09T05:08:18.257Z,35.15
2023-05-09T05:10:49.161Z,32.40
2023-05-09T05:13:19.307Z,31.98
2023-05-09T05:15:52.022Z,30.92
2023-05-09T05:18:21.887Z,31.73
2023-05-09T05:20:51.725Z,33.80
2023-05-09T05:23:22.217Z,33.55
2023-05-09T05:25:52.239Z,29.40
2023-05-09T05:28:22.072Z,33.00
2023-05-09T05:30:54.521Z,30.88
2023-05-09T05:33:24.352Z,33.47
2023-05-09T05:35:54.261Z,32.97
2023-05-09T05:38:24.219Z,32.00
2023-05-09T05:40:54.052Z,29.70
2023-05-09T05:43:24.060Z,32.05
2023-05-09T05:45:57.513Z,31.08
2023-05-09T05:48:27.544Z,34.15
2023-05-09T05:50:57.434Z,34.63
2023-05-09T05:53:27.326Z,31.38
2023-05-09T05:55:57.225Z,27.35
2023-05-09T05:58:28.131Z,33.10
2023-05-09T06:01:00.936Z,33.38
2023-05-09T06:03:31.010Z,31.02
2023-05-09T06:06:01.381Z,30.88
2023-05-09T06:08:31.253Z,35.15
2023-05-09T06:11:01.102Z,30.65
2023-05-09T06:13:30.975Z,30.92
2023-05-09T06:16:17.929Z,31.75
2023-05-09T06:18:48.996Z,33.72
2023-05-09T06:21:18.891Z,27.30
2023-05-09T06:24:05.086Z,29.50
2023-05-09T06:26:39.158Z,27.83
2023-05-09T06:29:09.140Z,26.52
2023-05-09T06:31:41.590Z,35.13
2023-05-09T06:34:11.485Z,27.38
2023-05-09T06:36:41.381Z,29.40
2023-05-09T06:39:11.279Z,30.05
2023-05-09T06:41:41.102Z,28.13
2023-05-09T06:44:10.928Z,25.70
2023-05-09T06:46:43.442Z,27.90
2023-05-09T06:49:14.019Z,27.75
2023-05-09T06:51:44.024Z,24.38
2023-05-09T06:54:13.912Z,29.50
2023-05-09T06:56:44.130Z,26.73
2023-05-09T06:59:16.407Z,28.70
2023-05-09T07:01:48.984Z,28.67
2023-05-09T07:04:18.871Z,29.45
2023-05-09T07:06:48.767Z,30.90
2023-05-09T07:09:20.721Z,26.02
2023-05-09T07:11:50.742Z,28.38
2023-05-09T07:14:20.608Z,30.35
2023-05-09T07:16:53.101Z,26.45
2023-05-09T07:19:24.939Z,29.55
2023-05-09T07:21:54.845Z,28.00
2023-05-09T07:24:24.979Z,29.15
2023-05-09T07:26:55.006Z,25.35
2023-05-09T07:29:24.840Z,26.17
2023-05-09T07:31:57.558Z,28.45
2023-05-09T07:34:27.609Z,25.52
2023-05-09T07:36:58.825Z,25.00
2023-05-09T07:39:28.756Z,28.85
2023-05-09T07:41:58.657Z,25.98
2023-05-09T07:44:28.605Z,24.88
2023-05-09T07:47:02.699Z,21.08
2023-05-09T07:49:32.591Z,22.52
2023-05-09T07:52:02.476Z,20.98
2023-05-09T07:54:32.337Z,23.35
2023-05-09T07:57:02.178Z,20.00
2023-05-09T07:59:31.984Z,22.90
2023-05-09T08:02:04.491Z,21.85
2023-05-09T08:04:34.567Z,21.23
2023-05-09T08:07:04.493Z,22.80
2023-05-09T08:09:34.442Z,19.42
2023-05-09T08:12:04.370Z,17.75
2023-05-09T08:14:34.443Z,21.92
2023-05-09T08:17:06.937Z,19.10
2023-05-09T08:19:36.835Z,19.40
2023-05-09T08:22:06.704Z,20.58
2023-05-09T08:24:36.767Z,18.02
2023-05-09T08:27:06.773Z,15.95
2023-05-09T08:29:36.593Z,17.88
2023-05-09T08:32:09.297Z,17.60
2023-05-09T08:34:39.259Z,20.52
2023-05-09T08:37:09.137Z,21.30
2023-05-09T08:39:38.974Z,19.92
2023-05-09T08:42:11.305Z,17.70
2023-05-09T08:44:41.131Z,19.08
2023-05-09T08:47:14.358Z,18.95
2023-05-09T08:49:45.218Z,22.40
2023-05-09T08:52:15.501Z,18.05
2023-05-09T08:54:46.329Z,21.10
2023-05-09T08:57:16.789Z,21.17
2023-05-09T08:59:46.956Z,20.83
2023-05-09T09:02:19.592Z,20.45
2023-05-09T09:04:49.518Z,22.67
2023-05-09T09:07:19.757Z,22.08
2023-05-09T09:09:51.406Z,17.50
2023-05-09T09:12:24.664Z,19.85
2023-05-09T09:14:58.021Z,18.00
2023-05-09T09:17:32.625Z,19.02
2023-05-09T09:20:06.012Z,17.80
2023-05-09T09:22:37.685Z,17.67
2023-05-09T09:25:08.308Z,20.67
2023-05-09T09:27:38.370Z,17.40
2023-05-09T09:30:12.471Z,19.05
2023-05-09T09:35:15.253Z,17.45
2023-05-09T09:37:45.599Z,19.45
2023-05-09T09:40:18.244Z,19.15
2023-05-09T09:42:49.708Z,18.00
2023-05-09T09:45:20.908Z,17.33
2023-05-09T09:47:54.616Z,15.25
2023-05-09T09:50:25.662Z,17.98
2023-05-09T09:52:56.757Z,16.45
2023-05-09T09:55:27.772Z,17.35
2023-05-09T09:57:58.180Z,13.65
2023-05-09T10:00:30.373Z,18.95
2023-05-09T10:03:03.194Z,15.30
2023-05-09T10:05:34.551Z,18.95
2023-05-09T10:08:07.751Z,13.65
2023-05-09T10:10:39.002Z,17.47
2023-05-09T10:13:12.675Z,15.73
2023-05-09T10:15:53.059Z,12.27
2023-05-09T10:18:31.171Z,13.13
2023-05-09T10:21:05.246Z,11.32
2023-05-09T10:23:40.142Z,12.73
2023-05-09T10:26:19.312Z,13.93
2023-05-09T10:28:51.835Z,11.48
2023-05-09T10:31:28.200Z,11.18
2023-05-09T10:34:08.138Z,10.65
2023-05-09T10:36:38.413Z,10.57
2023-05-09T10:39:08.990Z,12.15
2023-05-09T10:41:39.833Z,12.45
2023-05-09T10:44:10.009Z,8.70
2023-05-09T10:46:40.733Z,11.98
2023-05-09T10:49:13.812Z,11.23
2023-05-09T10:51:43.738Z,8.98
2023-05-09T10:54:18.321Z,9.32
2023-05-09T10:56:48.198Z,8.43
2023-05-09T10:59:37.412Z,10.32
2023-05-09T11:02:07.856Z,10.02
2023-05-09T11:04:42.358Z,9.50
2023-05-09T11:07:26.495Z,10.65
2023-05-09T11:10:10.178Z,10.65
2023-05-09T11:12:58.796Z,8.90
2023-05-09T11:15:30.055Z,8.90
2023-05-09T11:18:11.020Z,11.13
2023-05-09T11:20:51.581Z,12.82
2023-05-09T11:23:22.608Z,12.63
2023-05-09T11:25:52.874Z,10.68
2023-05-09T11:28:30.942Z,10.25
2023-05-09T11:31:12.692Z,9.85
2023-05-09T11:33:43.710Z,11.50
2023-05-09T11:36:33.685Z,11.30
2023-05-09T11:39:06.452Z,13.80
2023-05-09T11:41:44.098Z,11.95
2023-05-09T11:44:19.309Z,10.02
2023-05-09T11:46:50.518Z,11.10
2023-05-09T11:49:20.779Z,10.75
2023-05-09T11:51:53.528Z,12.95
2023-05-09T11:54:26.337Z,10.98
2023-05-09T11:56:56.656Z,8.10
2023-05-09T11:59:26.713Z,8.35
2023-05-09T12:01:56.612Z,9.27
2023-05-09T12:04:27.676Z,11.88
2023-05-09T12:07:01.122Z,10.48
2023-05-09T12:09:34.545Z,9.93
2023-05-09T12:12:05.022Z,11.15
2023-05-09T12:14:37.297Z,9.73
2023-05-09T12:17:07.309Z,8.20
2023-05-09T12:19:37.296Z,12.43
2023-05-09T12:22:10.229Z,8.18
2023-05-09T12:24:40.218Z,8.00
2023-05-09T12:27:10.248Z,8.65
2023-05-09T12:29:42.435Z,7.60
2023-05-09T12:32:12.423Z,7.15
2023-05-09T12:34:43.892Z,6.78
2023-05-09T12:37:20.849Z,7.25
2023-05-09T12:40:04.352Z,8.57
2023-05-09T12:42:34.883Z,7.40
2023-05-09T12:45:05.916Z,6.90
2023-05-09T12:47:39.088Z,8.25
2023-05-09T12:50:10.689Z,6.93
2023-05-09T12:52:54.725Z,6.82
2023-05-09T12:55:32.981Z,7.93
2023-05-09T12:58:04.911Z,7.85
2023-05-09T13:00:46.874Z,8.18
2023-05-09T13:03:26.709Z,7.28
2023-05-09T13:06:00.900Z,6.97
2023-05-09T13:08:34.029Z,6.75
2023-05-09T13:11:15.580Z,8.67
2023-05-09T13:13:46.351Z,10.82
2023-05-09T13:16:17.746Z,7.78
2023-05-09T13:18:48.100Z,8.25
2023-05-09T13:21:18.055Z,7.88
2023-05-09T13:23:51.343Z,7.88
2023-05-09T13:26:21.634Z,7.88
2023-05-09T13:28:51.688Z,7.93
2023-05-09T13:31:22.773Z,6.10
2023-05-09T13:33:53.374Z,7.05
2023-05-09T13:36:23.359Z,6.80
2023-05-09T13:38:58.390Z,6.90
2023-05-09T13:41:30.926Z,6.10
2023-05-09T13:44:00.860Z,3.85
2023-05-09T13:46:30.730Z,6.13
2023-05-09T13:49:00.646Z,4.53
2023-05-09T13:51:30.603Z,5.10
2023-05-09T13:54:04.766Z,6.13
2023-05-09T13:56:34.754Z,4.32
2023-05-09T13:59:04.754Z,5.75
2023-05-09T14:01:35.142Z,5.80
2023-05-09T14:04:05.448Z,4.85
2023-05-09T14:06:35.723Z,4.10
2023-05-09T14:09:09.267Z,7.63
2023-05-09T14:11:39.167Z,6.93
2023-05-09T14:14:09.000Z,5.78
2023-05-09T14:16:38.954Z,6.47
2023-05-09T14:19:08.869Z,5.82
2023-05-09T14:21:39.484Z,4.38
2023-05-09T14:24:15.663Z,5.63
2023-05-09T14:26:46.725Z,7.75
2023-05-09T14:29:16.735Z,4.45
2023-05-09T14:31:46.751Z,4.00
2023-05-09T14:34:16.724Z,3.78
2023-05-09T14:36:46.849Z,3.58
2023-05-09T14:39:20.564Z,3.03
2023-05-09T14:41:50.482Z,4.68
2023-05-09T14:44:20.404Z,2.75
2023-05-09T14:46:50.589Z,4.15
2023-05-09T14:49:20.596Z,4.53
2023-05-09T14:51:50.462Z,5.43
2023-05-09T14:54:22.956Z,3.40
2023-05-09T14:56:52.814Z,3.33
2023-05-09T14:59:22.650Z,4.45
2023-05-09T15:01:53.763Z,3.47
2023-05-09T15:04:25.617Z,2.30
2023-05-09T15:06:55.618Z,4.15
2023-05-09T15:09:28.136Z,3.80
2023-05-09T15:11:58.232Z,3.80
2023-05-09T15:14:28.230Z,6.97
2023-05-09T15:17:00.138Z,5.22
2023-05-09T15:19:31.627Z,7.78
2023-05-09T15:22:04.054Z,3.58
2023-05-09T15:24:36.580Z,3.47
2023-05-09T15:27:06.678Z,1.67
2023-05-09T15:29:36.598Z,2.75
2023-05-09T15:32:07.179Z,2.08
2023-05-09T15:34:37.198Z,2.25
2023-05-09T15:37:07.115Z,2.40
2023-05-09T15:39:43.477Z,3.83
2023-05-09T15:42:13.483Z,2.35
2023-05-09T15:44:43.791Z,1.65
2023-05-09T15:47:18.088Z,4.05
2023-05-09T15:49:47.976Z,4.05
2023-05-09T15:52:18.239Z,2.40
2023-05-09T15:54:50.859Z,3.80
2023-05-09T15:57:20.737Z,2.38
2023-05-09T15:59:50.607Z,2.58
2023-05-09T16:02:20.439Z,1.75
2023-05-09T16:04:50.359Z,2.00
2023-05-09T16:07:20.863Z,5.30
2023-05-09T16:09:53.460Z,1.90
2023-05-09T16:12:24.394Z,2.08
2023-05-09T16:14:54.329Z,2.25
2023-05-09T16:17:24.154Z,2.65
2023-05-09T16:19:53.975Z,3.40
2023-05-09T16:22:23.849Z,4.80
2023-05-09T16:24:56.454Z,2.15
2023-05-09T16:27:26.344Z,2.40
2023-05-09T16:29:56.188Z,3.00
2023-05-09T16:32:26.175Z,2.92
2023-05-09T16:34:56.057Z,3.20
2023-05-09T16:37:28.793Z,3.45
2023-05-09T16:40:01.553Z,5.05
2023-05-09T16:42:31.732Z,2.58
2023-05-09T16:45:01.631Z,4.68
2023-05-09T16:47:34.097Z,2.83
2023-05-09T16:50:04.800Z,5.03
2023-05-09T16:52:34.771Z,4.40
2023-05-09T16:55:08.326Z,3.83
2023-05-09T16:57:38.173Z,4.50
2023-05-09T17:00:12.614Z,7.22
2023-05-09T17:02:42.648Z,5.07
2023-05-09T17:05:12.961Z,2.45
2023-05-09T17:07:42.845Z,2.10
2023-05-09T17:10:15.785Z,2.55
2023-05-09T17:12:45.880Z,2.95
2023-05-09T17:15:15.883Z,3.05
2023-05-09T17:17:47.420Z,2.90
2023-05-09T17:20:17.582Z,5.20
2023-05-09T17:22:47.791Z,4.03
2023-05-09T17:25:20.635Z,2.72
2023-05-09T17:27:50.720Z,3.65
2023-05-09T17:30:22.839Z,4.88
2023-05-09T17:32:53.293Z,2.80
2023-05-09T17:35:25.818Z,4.38
2023-05-09T17:37:55.685Z,3.35
2023-05-09T17:40:28.805Z,3.45
2023-05-09T17:42:58.680Z,4.57
2023-05-09T17:45:28.837Z,7.35
2023-05-09T17:47:59.906Z,5.82
2023-05-09T17:50:29.894Z,5.00
2023-05-09T17:52:59.751Z,5.75
2023-05-09T17:55:32.194Z,5.45
2023-05-09T17:58:02.063Z,6.40
2023-05-09T18:00:32.221Z,6.15
2023-05-09T18:03:04.114Z,6.20
2023-05-09T18:05:34.826Z,6.63
2023-05-09T18:08:04.699Z,6.53
2023-05-09T18:10:37.174Z,6.80
2023-05-09T18:13:07.088Z,6.53
2023-05-09T18:15:38.543Z,6.90
2023-05-09T18:18:11.594Z,6.93
2023-05-09T18:23:12.510Z,9.30
2023-05-09T18:25:44.995Z,12.45
2023-05-09T18:28:14.866Z,8.10
2023-05-09T18:30:44.693Z,9.07
2023-05-09T18:33:14.573Z,8.23
2023-05-09T18:35:44.485Z,6.43
2023-05-09T18:38:14.309Z,8.13
2023-05-09T18:40:46.764Z,9.25
2023-05-09T18:43:17.000Z,6.28
2023-05-09T18:45:48.088Z,6.78
2023-05-09T18:48:18.924Z,7.30
2023-05-09T18:50:52.386Z,4.18
2023-05-09T18:53:22.721Z,5.05
2023-05-09T18:55:56.446Z,7.05
2023-05-09T18:58:28.162Z,4.88
2023-05-09T19:00:59.247Z,5.90
2023-05-09T19:03:29.622Z,5.00
2023-05-09T19:06:04.322Z,4.18
2023-05-09T19:08:38.627Z,5.53
2023-05-09T19:11:16.248Z,5.57
2023-05-09T19:13:48.841Z,8.48
2023-05-09T19:16:21.839Z,7.45
2023-05-09T19:18:52.266Z,5.72
2023-05-09T19:21:22.654Z,7.30
2023-05-09T19:23:53.230Z,7.88
2023-05-09T19:26:26.187Z,6.63
2023-05-09T19:28:56.552Z,7.70
2023-05-09T19:31:26.890Z,6.15
2023-05-09T19:33:57.302Z,6.55
2023-05-09T19:36:27.630Z,8.15
2023-05-09T19:38:57.956Z,7.95
2023-05-09T19:41:35.243Z,7.28
2023-05-09T19:44:07.448Z,6.75
2023-05-09T19:46:38.460Z,7.22
2023-05-09T19:49:09.222Z,7.32
2023-05-09T19:51:39.556Z,5.55
2023-05-09T19:54:09.869Z,7.22
2023-05-09T19:56:42.749Z,9.93
2023-05-09T19:59:12.999Z,9.43
2023-05-09T20:01:45.791Z,6.95
2023-05-09T20:04:16.592Z,7.15
2023-05-09T20:06:46.920Z,6.07
2023-05-09T20:09:20.992Z,7.90
2023-05-09T20:11:56.617Z,6.88
2023-05-09T20:14:27.227Z,5.97
2023-05-09T20:16:57.488Z,6.80
2023-05-09T20:19:27.880Z,7.60
2023-05-09T20:21:58.134Z,7.90
2023-05-09T20:24:28.778Z,6.13
2023-05-09T20:27:02.650Z,6.13
2023-05-09T20:29:32.868Z,7.32
2023-05-09T20:32:03.387Z,7.70
2023-05-09T20:34:33.856Z,6.50
2023-05-09T20:37:04.296Z,7.07
2023-05-09T20:39:34.253Z,7.32
2023-05-09T20:42:07.284Z,13.43
2023-05-09T20:44:37.681Z,10.63
2023-05-09T20:47:07.845Z,7.22
2023-05-09T20:49:37.732Z,10.38
2023-05-09T20:52:07.939Z,5.97
2023-05-09T20:54:37.808Z,10.18
2023-05-09T20:57:10.238Z,4.97
2023-05-09T20:59:40.173Z,7.45
2023-05-09T21:02:10.278Z,4.75
2023-05-09T21:04:40.515Z,4.18
2023-05-09T21:07:10.417Z,6.00
2023-05-09T21:09:40.379Z,4.65
2023-05-09T21:12:13.028Z,5.18
2023-05-09T21:14:44.677Z,8.93
2023-05-09T21:17:15.061Z,4.97
2023-05-09T21:19:45.060Z,5.40
2023-05-09T21:22:14.933Z,6.68
2023-05-09T21:24:44.755Z,5.97
2023-05-09T21:27:17.181Z,5.53
2023-05-09T21:29:49.381Z,4.35
2023-05-09T21:32:19.455Z,4.85
2023-05-09T21:34:50.644Z,4.13
2023-05-09T21:37:20.534Z,4.97
2023-05-09T21:39:50.362Z,4.25
2023-05-09T21:42:23.149Z,5.47
2023-05-09T21:44:52.999Z,4.90
2023-05-09T21:47:22.993Z,4.63
2023-05-09T21:49:53.017Z,6.45
2023-05-09T21:52:23.724Z,4.20
2023-05-09T21:54:53.549Z,3.33
2023-05-09T21:57:26.029Z,4.43
2023-05-09T21:59:56.360Z,4.80
2023-05-09T22:02:26.664Z,3.65
2023-05-09T22:04:56.523Z,3.65
2023-05-09T22:07:26.414Z,3.20
2023-05-09T22:09:56.227Z,4.78
2023-05-09T22:12:28.719Z,5.07
2023-05-09T22:14:58.580Z,2.65
2023-05-09T22:17:28.546Z,4.55
2023-05-09T22:19:58.634Z,3.33
2023-05-09T22:22:29.863Z,3.47
2023-05-09T22:24:59.688Z,3.03
2023-05-09T22:27:32.175Z,3.83
2023-05-09T22:30:02.892Z,3.97
2023-05-09T22:32:32.744Z,4.22
2023-05-09T22:35:03.027Z,2.70
2023-05-09T22:37:33.691Z,3.60
2023-05-09T22:40:03.653Z,4.63
2023-05-09T22:42:36.997Z,3.08
2023-05-09T22:45:07.505Z,3.55
2023-05-09T22:47:37.548Z,4.22
2023-05-09T22:50:08.327Z,1.83
2023-05-09T22:52:38.307Z,2.63
2023-05-09T22:55:09.409Z,4.80
2023-05-09T22:57:41.838Z,2.65
2023-05-09T23:00:12.990Z,1.60
2023-05-09T23:02:42.932Z,2.72
2023-05-09T23:05:13.477Z,1.80
2023-05-09T23:07:43.327Z,3.03
2023-05-09T23:10:13.739Z,3.25
2023-05-09T23:12:47.218Z,2.35
2023-05-09T23:15:17.361Z,2.50
2023-05-09T23:17:47.294Z,3.28
2023-05-09T23:20:17.361Z,2.58
2023-05-09T23:22:47.497Z,2.75
2023-05-09T23:25:17.386Z,1.70
2023-05-09T23:27:49.815Z,4.80
2023-05-09T23:30:21.187Z,1.75
2023-05-09T23:32:51.113Z,2.38
2023-05-09T23:35:21.487Z,2.65
2023-05-09T23:37:51.525Z,1.63
2023-05-09T23:40:21.756Z,2.25
2023-05-09T23:42:54.247Z,2.05
2023-05-09T23:45:24.328Z,2.17
2023-05-09T23:47:54.236Z,1.75
2023-05-09T23:50:24.412Z,1.60
2023-05-09T23:52:54.266Z,2.35
2023-05-09T23:55:24.077Z,1.20
2023-05-09T23:57:56.519Z,1.85
